X  Close Metar Aviation Weather Data     EDHL Lübeck Blankensee Airport
Temperature
16°C Temperature
10°C Dewpoint
68% Humidity



Wind
13 KM/H
8 MPH
4 M/S
7 KTS



280°
W
Current Conditions

Mostly Scattered Clouds Mostly Scattered Clouds
Pressure 1015.92 (hPa) - 30 (inHg)
Visibility 6 (mile) - 9.7 (km)
Airport
Airport-code EDHL

Location: Lübeck Blankensee Airport
Distance: 78 (km)

Metar:
EDHL 281420Z 28007KT 230V310 9999 SCT029 16/10 Q1016

Time: 28-05-2024 14:20 CEST